SETN

Details ICAO SETN (ESM)
Name GENERAL RIVADENEIRA
Region Equador
Timezone Unknown (UTC+0.0)
Plans Departing 17
Arriving 13
Stats Elevation 32 ft / 10 m (AMSL)
Location 0.978519° -79.626707°
Runways 1
Magnetic Variation 3.006° W
Sunrise 2018-05-20 11:11:30 UTC / 2018-05-20 11:11:30 Local
Sunset 2018-05-20 23:21:26 UTC / 2018-05-20 23:21:26 Local
Advertisement - Login to hide

Runways

ID Width Length Bearing (true) Bearing (mag) Surface Threshold Offset Overrun Length
18 148 ft / 45 m 7,921 ft / 2,414 m 182.72° 185.73° Asphalt 0 ft / 0 m 0 ft / 0 m
36 148 ft / 45 m 7,921 ft / 2,414 m 2.72° 5.73° Asphalt 0 ft / 0 m 0 ft / 0 m

Map

Weather


0- 5 10 15 20 25 30 35+ Temperature / ° C

Clouds and Precipitation
Forecast for 2018-05-20 18:00 UTC. Updated 5 hours ago

Ground ~20,000 ft ~40,000 ft Winds

METAR

SETN 202200Z 21009KT 9999 SCT023 BKN080 26/24 Q1009 A2982

TAF

Not found

Frequencies

Tower 122.80 MHz TACHINA TWR
Warning: Do not use this data for real-world aviation or navigation. No guarantee of current accuracy is given.